sensor_id;sensor_type;location;lat;lon;timestamp;temperature;humidity
37242;DHT22;23135;51.078;12.108;2023-05-10T00:01:54;9.60;99.90
37242;DHT22;23135;51.078;12.108;2023-05-10T00:04:19;9.70;99.90
37242;DHT22;23135;51.078;12.108;2023-05-10T00:06:45;9.80;99.90
37242;DHT22;23135;51.078;12.108;2023-05-10T00:09:11;10.00;99.90
37242;DHT22;23135;51.078;12.108;2023-05-10T00:11:37;10.10;99.90
37242;DHT22;23135;51.078;12.108;2023-05-10T00:14:02;10.20;99.90
37242;DHT22;23135;51.078;12.108;2023-05-10T00:16:28;10.20;99.90
37242;DHT22;23135;51.078;12.108;2023-05-10T00:18:53;10.20;99.90
37242;DHT22;23135;51.078;12.108;2023-05-10T00:21:19;10.20;99.90
37242;DHT22;23135;51.078;12.108;2023-05-10T00:23:45;10.20;99.90
37242;DHT22;23135;51.078;12.108;2023-05-10T00:26:10;10.20;99.90
37242;DHT22;23135;51.078;12.108;2023-05-10T00:28:36;10.20;99.90
37242;DHT22;23135;51.078;12.108;2023-05-10T00:31:01;10.20;99.90
37242;DHT22;23135;51.078;12.108;2023-05-10T00:33:27;10.10;99.90
37242;DHT22;23135;51.078;12.108;2023-05-10T00:35:53;10.10;99.90
37242;DHT22;23135;51.078;12.108;2023-05-10T00:38:18;10.20;99.90
37242;DHT22;23135;51.078;12.108;2023-05-10T00:40:44;10.20;99.90
37242;DHT22;23135;51.078;12.108;2023-05-10T00:43:09;10.20;99.90
37242;DHT22;23135;51.078;12.108;2023-05-10T00:45:36;10.30;99.90
37242;DHT22;23135;51.078;12.108;2023-05-10T00:48:02;10.40;99.90
37242;DHT22;23135;51.078;12.108;2023-05-10T00:50:29;10.20;99.90
37242;DHT22;23135;51.078;12.108;2023-05-10T00:52:56;10.00;99.90
37242;DHT22;23135;51.078;12.108;2023-05-10T00:55:23;9.90;99.90
37242;DHT22;23135;51.078;12.108;2023-05-10T00:57:48;9.80;99.90
37242;DHT22;23135;51.078;12.108;2023-05-10T01:00:14;9.80;99.90
37242;DHT22;23135;51.078;12.108;2023-05-10T01:02:44;9.70;99.90
37242;DHT22;23135;51.078;12.108;2023-05-10T01:05:10;9.50;99.90
37242;DHT22;23135;51.078;12.108;2023-05-10T01:07:36;9.50;99.90
37242;DHT22;23135;51.078;12.108;2023-05-10T01:10:02;9.50;99.90
37242;DHT22;23135;51.078;12.108;2023-05-10T01:12:28;9.60;99.90
37242;DHT22;23135;51.078;12.108;2023-05-10T01:14:54;9.60;99.90
37242;DHT22;23135;51.078;12.108;2023-05-10T01:17:21;9.70;99.90
37242;DHT22;23135;51.078;12.108;2023-05-10T01:19:47;9.90;99.90
37242;DHT22;23135;51.078;12.108;2023-05-10T01:33:19;9.90;99.90
37242;DHT22;23135;51.078;12.108;2023-05-10T01:35:52;9.90;99.90
37242;DHT22;23135;51.078;12.108;2023-05-10T01:38:47;9.80;99.90
37242;DHT22;23135;51.078;12.108;2023-05-10T01:41:28;9.70;99.90
37242;DHT22;23135;51.078;12.108;2023-05-10T01:43:57;9.70;99.90
37242;DHT22;23135;51.078;12.108;2023-05-10T01:46:32;9.60;99.90
37242;DHT22;23135;51.078;12.108;2023-05-10T01:48:59;9.50;99.90
37242;DHT22;23135;51.078;12.108;2023-05-10T01:51:29;9.70;99.90
37242;DHT22;23135;51.078;12.108;2023-05-10T01:54:02;10.00;99.90
37242;DHT22;23135;51.078;12.108;2023-05-10T01:56:31;10.30;99.90
37242;DHT22;23135;51.078;12.108;2023-05-10T01:59:00;10.30;99.90
37242;DHT22;23135;51.078;12.108;2023-05-10T02:01:26;10.00;99.90
37242;DHT22;23135;51.078;12.108;2023-05-10T02:03:53;9.70;99.90
37242;DHT22;23135;51.078;12.108;2023-05-10T02:06:20;9.60;99.90
37242;DHT22;23135;51.078;12.108;2023-05-10T02:08:48;9.60;99.90
37242;DHT22;23135;51.078;12.108;2023-05-10T02:11:15;9.80;99.90
37242;DHT22;23135;51.078;12.108;2023-05-10T02:13:42;10.10;99.90
37242;DHT22;23135;51.078;12.108;2023-05-10T02:16:08;10.40;99.90
37242;DHT22;23135;51.078;12.108;2023-05-10T02:18:35;10.50;99.90
37242;DHT22;23135;51.078;12.108;2023-05-10T02:21:02;10.60;99.90
37242;DHT22;23135;51.078;12.108;2023-05-10T02:23:29;10.80;99.90
37242;DHT22;23135;51.078;12.108;2023-05-10T02:25:56;10.90;99.90
37242;DHT22;23135;51.078;12.108;2023-05-10T02:28:23;11.00;99.90
37242;DHT22;23135;51.078;12.108;2023-05-10T02:30:51;11.00;99.90
37242;DHT22;23135;51.078;12.108;2023-05-10T02:33:17;11.00;99.90
37242;DHT22;23135;51.078;12.108;2023-05-10T02:35:43;10.90;99.90
37242;DHT22;23135;51.078;12.108;2023-05-10T02:38:10;10.60;99.90
37242;DHT22;23135;51.078;12.108;2023-05-10T02:40:38;10.50;99.90
37242;DHT22;23135;51.078;12.108;2023-05-10T02:43:04;10.40;99.90
37242;DHT22;23135;51.078;12.108;2023-05-10T02:45:32;10.30;99.90
37242;DHT22;23135;51.078;12.108;2023-05-10T02:47:59;10.40;99.90
37242;DHT22;23135;51.078;12.108;2023-05-10T02:50:30;10.50;99.90
37242;DHT22;23135;51.078;12.108;2023-05-10T02:53:01;10.50;99.90
37242;DHT22;23135;51.078;12.108;2023-05-10T02:55:32;10.60;99.90
37242;DHT22;23135;51.078;12.108;2023-05-10T02:58:01;10.70;99.90
37242;DHT22;23135;51.078;12.108;2023-05-10T03:00:27;10.60;99.90
37242;DHT22;23135;51.078;12.108;2023-05-10T03:02:54;10.60;99.90
37242;DHT22;23135;51.078;12.108;2023-05-10T03:05:20;10.60;99.90
37242;DHT22;23135;51.078;12.108;2023-05-10T03:07:46;10.70;99.90
37242;DHT22;23135;51.078;12.108;2023-05-10T03:10:12;10.70;99.90
37242;DHT22;23135;51.078;12.108;2023-05-10T03:12:49;10.70;99.90
37242;DHT22;23135;51.078;12.108;2023-05-10T03:15:25;10.80;99.90
37242;DHT22;23135;51.078;12.108;2023-05-10T03:18:04;10.80;99.90
37242;DHT22;23135;51.078;12.108;2023-05-10T03:20:47;10.80;99.90
37242;DHT22;23135;51.078;12.108;2023-05-10T03:23:18;10.90;99.90
37242;DHT22;23135;51.078;12.108;2023-05-10T03:25:48;10.90;99.90
37242;DHT22;23135;51.078;12.108;2023-05-10T03:28:15;11.00;99.90
37242;DHT22;23135;51.078;12.108;2023-05-10T03:30:43;11.00;99.90
37242;DHT22;23135;51.078;12.108;2023-05-10T03:33:08;11.00;99.90
37242;DHT22;23135;51.078;12.108;2023-05-10T03:35:34;10.90;99.90
37242;DHT22;23135;51.078;12.108;2023-05-10T03:38:00;11.00;99.90
37242;DHT22;23135;51.078;12.108;2023-05-10T03:40:26;11.00;99.90
37242;DHT22;23135;51.078;12.108;2023-05-10T03:42:54;11.00;99.90
37242;DHT22;23135;51.078;12.108;2023-05-10T03:45:20;11.00;99.90
37242;DHT22;23135;51.078;12.108;2023-05-10T03:47:46;11.10;99.90
37242;DHT22;23135;51.078;12.108;2023-05-10T03:50:12;11.10;99.90
37242;DHT22;23135;51.078;12.108;2023-05-10T03:52:37;11.10;99.90
37242;DHT22;23135;51.078;12.108;2023-05-10T03:55:05;11.20;99.90
37242;DHT22;23135;51.078;12.108;2023-05-10T03:57:37;11.20;99.90
37242;DHT22;23135;51.078;12.108;2023-05-10T04:00:04;11.20;99.90
37242;DHT22;23135;51.078;12.108;2023-05-10T04:02:29;11.20;99.90
37242;DHT22;23135;51.078;12.108;2023-05-10T04:04:56;11.20;99.90
37242;DHT22;23135;51.078;12.108;2023-05-10T04:07:21;11.30;99.90
37242;DHT22;23135;51.078;12.108;2023-05-10T04:09:47;11.30;99.90
37242;DHT22;23135;51.078;12.108;2023-05-10T04:12:13;11.30;99.90
37242;DHT22;23135;51.078;12.108;2023-05-10T04:14:38;11.30;99.90
37242;DHT22;23135;51.078;12.108;2023-05-10T04:17:04;11.30;99.90
37242;DHT22;23135;51.078;12.108;2023-05-10T04:19:30;11.30;99.90
37242;DHT22;23135;51.078;12.108;2023-05-10T04:21:56;11.40;99.90
37242;DHT22;23135;51.078;12.108;2023-05-10T04:24:22;11.40;99.90
37242;DHT22;23135;51.078;12.108;2023-05-10T04:26:47;11.50;99.90
37242;DHT22;23135;51.078;12.108;2023-05-10T04:29:13;11.60;99.90
37242;DHT22;23135;51.078;12.108;2023-05-10T04:31:38;11.70;99.90
37242;DHT22;23135;51.078;12.108;2023-05-10T04:34:04;11.80;99.90
37242;DHT22;23135;51.078;12.108;2023-05-10T04:36:31;11.90;99.90
37242;DHT22;23135;51.078;12.108;2023-05-10T04:38:59;11.90;99.90
37242;DHT22;23135;51.078;12.108;2023-05-10T04:41:24;12.00;99.90
37242;DHT22;23135;51.078;12.108;2023-05-10T04:43:50;12.00;99.90
37242;DHT22;23135;51.078;12.108;2023-05-10T04:46:16;12.10;99.90
37242;DHT22;23135;51.078;12.108;2023-05-10T04:48:42;12.10;99.90
37242;DHT22;23135;51.078;12.108;2023-05-10T04:51:07;12.10;99.90
37242;DHT22;23135;51.078;12.108;2023-05-10T04:53:33;12.20;99.90
37242;DHT22;23135;51.078;12.108;2023-05-10T04:55:58;12.30;99.90
37242;DHT22;23135;51.078;12.108;2023-05-10T04:58:24;12.30;99.90
37242;DHT22;23135;51.078;12.108;2023-05-10T05:00:49;12.40;99.90
37242;DHT22;23135;51.078;12.108;2023-05-10T05:03:15;12.40;99.90
37242;DHT22;23135;51.078;12.108;2023-05-10T05:05:40;12.40;99.90
37242;DHT22;23135;51.078;12.108;2023-05-10T05:08:06;12.50;99.90
37242;DHT22;23135;51.078;12.108;2023-05-10T05:10:32;12.70;99.90
37242;DHT22;23135;51.078;12.108;2023-05-10T05:12:57;12.80;99.90
37242;DHT22;23135;51.078;12.108;2023-05-10T05:15:23;13.00;99.90
37242;DHT22;23135;51.078;12.108;2023-05-10T05:17:48;13.10;99.90
37242;DHT22;23135;51.078;12.108;2023-05-10T05:20:14;13.30;99.90
37242;DHT22;23135;51.078;12.108;2023-05-10T05:22:39;13.40;99.90
37242;DHT22;23135;51.078;12.108;2023-05-10T05:25:06;13.50;99.90
37242;DHT22;23135;51.078;12.108;2023-05-10T05:27:31;13.60;99.90
37242;DHT22;23135;51.078;12.108;2023-05-10T05:29:57;13.80;99.90
37242;DHT22;23135;51.078;12.108;2023-05-10T05:32:24;13.80;99.90
37242;DHT22;23135;51.078;12.108;2023-05-10T05:34:50;13.90;99.90
37242;DHT22;23135;51.078;12.108;2023-05-10T05:37:17;14.00;99.90
37242;DHT22;23135;51.078;12.108;2023-05-10T05:39:44;14.00;99.90
37242;DHT22;23135;51.078;12.108;2023-05-10T05:42:10;13.90;99.90
37242;DHT22;23135;51.078;12.108;2023-05-10T05:44:36;13.90;99.90
37242;DHT22;23135;51.078;12.108;2023-05-10T05:47:02;13.80;99.90
37242;DHT22;23135;51.078;12.108;2023-05-10T05:49:27;13.70;99.90
37242;DHT22;23135;51.078;12.108;2023-05-10T05:51:53;13.70;99.90
37242;DHT22;23135;51.078;12.108;2023-05-10T05:54:18;13.70;99.90
37242;DHT22;23135;51.078;12.108;2023-05-10T05:56:44;13.70;99.90
37242;DHT22;23135;51.078;12.108;2023-05-10T05:59:10;13.70;99.90
37242;DHT22;23135;51.078;12.108;2023-05-10T06:01:36;13.70;99.90
37242;DHT22;23135;51.078;12.108;2023-05-10T06:04:02;13.70;99.90
37242;DHT22;23135;51.078;12.108;2023-05-10T06:06:28;13.70;99.90
37242;DHT22;23135;51.078;12.108;2023-05-10T06:08:53;13.70;99.90
37242;DHT22;23135;51.078;12.108;2023-05-10T06:11:19;13.70;99.90
37242;DHT22;23135;51.078;12.108;2023-05-10T06:13:46;13.70;99.90
37242;DHT22;23135;51.078;12.108;2023-05-10T06:16:12;13.70;99.90
37242;DHT22;23135;51.078;12.108;2023-05-10T06:18:38;13.60;99.90
37242;DHT22;23135;51.078;12.108;2023-05-10T06:21:04;13.70;99.90
37242;DHT22;23135;51.078;12.108;2023-05-10T06:23:29;13.70;99.90
37242;DHT22;23135;51.078;12.108;2023-05-10T06:25:55;13.70;99.90
37242;DHT22;23135;51.078;12.108;2023-05-10T06:28:20;13.70;99.90
37242;DHT22;23135;51.078;12.108;2023-05-10T06:30:46;13.60;99.90
37242;DHT22;23135;51.078;12.108;2023-05-10T06:33:12;13.50;99.90
37242;DHT22;23135;51.078;12.108;2023-05-10T06:35:37;13.40;99.90
37242;DHT22;23135;51.078;12.108;2023-05-10T06:38:04;13.30;99.90
37242;DHT22;23135;51.078;12.108;2023-05-10T06:40:29;13.20;99.90
37242;DHT22;23135;51.078;12.108;2023-05-10T06:42:55;13.10;99.90
37242;DHT22;23135;51.078;12.108;2023-05-10T06:45:21;13.10;99.90
37242;DHT22;23135;51.078;12.108;2023-05-10T06:47:46;13.10;99.90
37242;DHT22;23135;51.078;12.108;2023-05-10T06:50:12;13.00;99.90
37242;DHT22;23135;51.078;12.108;2023-05-10T06:52:38;13.00;99.90
37242;DHT22;23135;51.078;12.108;2023-05-10T06:55:05;12.90;99.90
37242;DHT22;23135;51.078;12.108;2023-05-10T06:57:31;12.90;99.90
37242;DHT22;23135;51.078;12.108;2023-05-10T06:59:58;12.90;99.90
37242;DHT22;23135;51.078;12.108;2023-05-10T07:02:23;12.90;99.90
37242;DHT22;23135;51.078;12.108;2023-05-10T07:04:49;12.90;99.90
37242;DHT22;23135;51.078;12.108;2023-05-10T07:07:15;12.80;99.90
37242;DHT22;23135;51.078;12.108;2023-05-10T07:09:40;12.70;99.90
37242;DHT22;23135;51.078;12.108;2023-05-10T07:12:06;12.70;99.90
37242;DHT22;23135;51.078;12.108;2023-05-10T07:14:32;12.70;99.90
37242;DHT22;23135;51.078;12.108;2023-05-10T07:16:57;12.60;99.90
37242;DHT22;23135;51.078;12.108;2023-05-10T07:19:23;12.50;99.90
37242;DHT22;23135;51.078;12.108;2023-05-10T07:21:49;12.40;99.90
37242;DHT22;23135;51.078;12.108;2023-05-10T07:24:16;12.40;99.90
37242;DHT22;23135;51.078;12.108;2023-05-10T07:26:41;12.30;99.90
37242;DHT22;23135;51.078;12.108;2023-05-10T07:29:07;12.30;99.90
37242;DHT22;23135;51.078;12.108;2023-05-10T07:31:32;12.30;99.90
37242;DHT22;23135;51.078;12.108;2023-05-10T07:33:58;12.30;99.90
37242;DHT22;23135;51.078;12.108;2023-05-10T07:36:23;12.30;99.90
37242;DHT22;23135;51.078;12.108;2023-05-10T07:38:49;12.30;99.90
37242;DHT22;23135;51.078;12.108;2023-05-10T07:41:15;12.30;99.90
37242;DHT22;23135;51.078;12.108;2023-05-10T07:43:40;12.40;99.90
37242;DHT22;23135;51.078;12.108;2023-05-10T07:46:06;12.40;99.90
37242;DHT22;23135;51.078;12.108;2023-05-10T07:48:32;12.50;99.90
37242;DHT22;23135;51.078;12.108;2023-05-10T07:50:57;12.50;99.90
37242;DHT22;23135;51.078;12.108;2023-05-10T07:53:23;12.50;99.90
37242;DHT22;23135;51.078;12.108;2023-05-10T07:55:54;12.50;99.90
37242;DHT22;23135;51.078;12.108;2023-05-10T07:58:22;12.50;99.90
37242;DHT22;23135;51.078;12.108;2023-05-10T08:00:47;12.50;99.90
37242;DHT22;23135;51.078;12.108;2023-05-10T08:03:14;12.50;99.90
37242;DHT22;23135;51.078;12.108;2023-05-10T08:05:40;12.50;99.90
37242;DHT22;23135;51.078;12.108;2023-05-10T08:08:06;12.50;99.90
37242;DHT22;23135;51.078;12.108;2023-05-10T08:10:32;12.50;99.90
37242;DHT22;23135;51.078;12.108;2023-05-10T08:12:57;12.50;99.90
37242;DHT22;23135;51.078;12.108;2023-05-10T08:15:24;12.50;99.90
37242;DHT22;23135;51.078;12.108;2023-05-10T08:17:50;12.50;99.90
37242;DHT22;23135;51.078;12.108;2023-05-10T08:20:16;12.40;99.90
37242;DHT22;23135;51.078;12.108;2023-05-10T08:22:47;12.40;99.90
37242;DHT22;23135;51.078;12.108;2023-05-10T08:25:12;12.40;99.90
37242;DHT22;23135;51.078;12.108;2023-05-10T08:27:38;12.40;99.90
37242;DHT22;23135;51.078;12.108;2023-05-10T08:30:03;12.40;99.90
37242;DHT22;23135;51.078;12.108;2023-05-10T08:32:29;12.30;99.90
37242;DHT22;23135;51.078;12.108;2023-05-10T08:34:55;12.30;99.90
37242;DHT22;23135;51.078;12.108;2023-05-10T08:37:22;12.30;99.90
37242;DHT22;23135;51.078;12.108;2023-05-10T08:39:48;12.40;99.90
37242;DHT22;23135;51.078;12.108;2023-05-10T08:42:16;12.50;99.90
37242;DHT22;23135;51.078;12.108;2023-05-10T08:44:43;12.50;99.90
37242;DHT22;23135;51.078;12.108;2023-05-10T08:47:09;12.50;99.90
37242;DHT22;23135;51.078;12.108;2023-05-10T08:49:37;12.60;99.90
37242;DHT22;23135;51.078;12.108;2023-05-10T08:52:04;12.50;99.90
37242;DHT22;23135;51.078;12.108;2023-05-10T08:54:34;12.50;99.90
37242;DHT22;23135;51.078;12.108;2023-05-10T08:57:00;12.50;99.90
37242;DHT22;23135;51.078;12.108;2023-05-10T08:59:25;12.60;99.90
37242;DHT22;23135;51.078;12.108;2023-05-10T09:01:52;12.70;99.90
37242;DHT22;23135;51.078;12.108;2023-05-10T09:04:19;12.80;99.90
37242;DHT22;23135;51.078;12.108;2023-05-10T09:06:45;13.00;99.90
37242;DHT22;23135;51.078;12.108;2023-05-10T09:09:10;13.10;99.90
37242;DHT22;23135;51.078;12.108;2023-05-10T09:11:37;13.20;99.90
37242;DHT22;23135;51.078;12.108;2023-05-10T09:14:02;13.30;99.90
37242;DHT22;23135;51.078;12.108;2023-05-10T09:16:28;13.30;99.90
37242;DHT22;23135;51.078;12.108;2023-05-10T09:18:54;13.40;99.90
37242;DHT22;23135;51.078;12.108;2023-05-10T09:21:20;13.50;99.90
37242;DHT22;23135;51.078;12.108;2023-05-10T09:23:47;13.60;99.90
37242;DHT22;23135;51.078;12.108;2023-05-10T09:26:13;13.50;99.90
37242;DHT22;23135;51.078;12.108;2023-05-10T09:28:54;13.60;99.90
37242;DHT22;23135;51.078;12.108;2023-05-10T09:31:19;13.80;99.90
37242;DHT22;23135;51.078;12.108;2023-05-10T09:33:48;13.80;99.90
37242;DHT22;23135;51.078;12.108;2023-05-10T09:36:14;13.80;99.90
37242;DHT22;23135;51.078;12.108;2023-05-10T09:38:51;13.90;99.90
37242;DHT22;23135;51.078;12.108;2023-05-10T09:41:18;14.00;99.90
37242;DHT22;23135;51.078;12.108;2023-05-10T09:43:44;14.10;99.90
37242;DHT22;23135;51.078;12.108;2023-05-10T09:46:09;14.10;99.90
37242;DHT22;23135;51.078;12.108;2023-05-10T09:48:47;14.10;99.90
37242;DHT22;23135;51.078;12.108;2023-05-10T09:51:24;14.10;99.90
37242;DHT22;23135;51.078;12.108;2023-05-10T09:54:15;14.10;99.90
37242;DHT22;23135;51.078;12.108;2023-05-10T09:56:41;14.30;99.90
37242;DHT22;23135;51.078;12.108;2023-05-10T09:59:10;14.30;99.90
37242;DHT22;23135;51.078;12.108;2023-05-10T10:01:37;14.30;99.90
37242;DHT22;23135;51.078;12.108;2023-05-10T10:04:07;14.30;99.90
37242;DHT22;23135;51.078;12.108;2023-05-10T10:06:37;14.30;99.90
37242;DHT22;23135;51.078;12.108;2023-05-10T10:09:04;14.20;99.90
37242;DHT22;23135;51.078;12.108;2023-05-10T10:11:29;14.20;99.90
37242;DHT22;23135;51.078;12.108;2023-05-10T10:13:55;14.20;99.90
37242;DHT22;23135;51.078;12.108;2023-05-10T10:16:21;14.20;99.90
37242;DHT22;23135;51.078;12.108;2023-05-10T10:18:47;14.30;99.90
37242;DHT22;23135;51.078;12.108;2023-05-10T10:21:14;14.20;99.90
37242;DHT22;23135;51.078;12.108;2023-05-10T10:23:40;14.20;99.90
37242;DHT22;23135;51.078;12.108;2023-05-10T10:26:06;14.40;99.90
37242;DHT22;23135;51.078;12.108;2023-05-10T10:31:39;14.50;99.90
37242;DHT22;23135;51.078;12.108;2023-05-10T10:34:06;14.40;99.90
37242;DHT22;23135;51.078;12.108;2023-05-10T10:36:40;14.50;99.90
37242;DHT22;23135;51.078;12.108;2023-05-10T10:39:09;14.50;99.90
37242;DHT22;23135;51.078;12.108;2023-05-10T10:41:57;14.60;99.90
37242;DHT22;23135;51.078;12.108;2023-05-10T10:47:11;14.80;99.90
37242;DHT22;23135;51.078;12.108;2023-05-10T10:52:27;14.80;99.90
37242;DHT22;23135;51.078;12.108;2023-05-10T10:55:14;15.00;99.90
37242;DHT22;23135;51.078;12.108;2023-05-10T10:57:45;15.20;99.90
37242;DHT22;23135;51.078;12.108;2023-05-10T11:00:27;15.30;99.90
37242;DHT22;23135;51.078;12.108;2023-05-10T11:03:03;15.40;99.90
37242;DHT22;23135;51.078;12.108;2023-05-10T11:05:37;15.40;99.90
37242;DHT22;23135;51.078;12.108;2023-05-10T11:08:11;15.50;99.90
37242;DHT22;23135;51.078;12.108;2023-05-10T11:10:38;15.50;99.90
37242;DHT22;23135;51.078;12.108;2023-05-10T11:13:05;15.50;99.90
37242;DHT22;23135;51.078;12.108;2023-05-10T11:15:36;15.50;99.90
37242;DHT22;23135;51.078;12.108;2023-05-10T11:18:24;15.50;99.90
37242;DHT22;23135;51.078;12.108;2023-05-10T11:20:51;15.60;99.90
37242;DHT22;23135;51.078;12.108;2023-05-10T11:23:17;15.50;99.90
37242;DHT22;23135;51.078;12.108;2023-05-10T11:25:45;15.60;99.90
37242;DHT22;23135;51.078;12.108;2023-05-10T11:28:12;15.60;99.90
37242;DHT22;23135;51.078;12.108;2023-05-10T11:30:39;15.60;99.90
37242;DHT22;23135;51.078;12.108;2023-05-10T11:33:06;15.60;99.90
37242;DHT22;23135;51.078;12.108;2023-05-10T11:35:39;15.70;99.90
37242;DHT22;23135;51.078;12.108;2023-05-10T11:38:09;15.70;99.90
37242;DHT22;23135;51.078;12.108;2023-05-10T11:40:36;15.70;99.90
37242;DHT22;23135;51.078;12.108;2023-05-10T11:43:02;15.60;99.90
37242;DHT22;23135;51.078;12.108;2023-05-10T11:45:29;15.70;99.90
37242;DHT22;23135;51.078;12.108;2023-05-10T11:47:56;15.70;99.90
37242;DHT22;23135;51.078;12.108;2023-05-10T11:50:22;15.80;99.90
37242;DHT22;23135;51.078;12.108;2023-05-10T11:52:55;15.80;99.90
37242;DHT22;23135;51.078;12.108;2023-05-10T11:55:21;15.80;99.90
37242;DHT22;23135;51.078;12.108;2023-05-10T11:57:52;15.80;99.90
37242;DHT22;23135;51.078;12.108;2023-05-10T12:00:17;15.90;99.90
37242;DHT22;23135;51.078;12.108;2023-05-10T12:02:43;15.90;99.90
37242;DHT22;23135;51.078;12.108;2023-05-10T12:05:09;16.00;99.90
37242;DHT22;23135;51.078;12.108;2023-05-10T12:07:35;15.90;99.90
37242;DHT22;23135;51.078;12.108;2023-05-10T12:10:12;15.90;99.90
37242;DHT22;23135;51.078;12.108;2023-05-10T12:12:44;15.90;99.90
37242;DHT22;23135;51.078;12.108;2023-05-10T12:15:21;15.90;99.90
37242;DHT22;23135;51.078;12.108;2023-05-10T12:17:47;16.00;99.90
37242;DHT22;23135;51.078;12.108;2023-05-10T12:22:40;16.00;99.90
37242;DHT22;23135;51.078;12.108;2023-05-10T12:25:07;16.00;99.90
37242;DHT22;23135;51.078;12.108;2023-05-10T12:27:33;16.10;99.90
37242;DHT22;23135;51.078;12.108;2023-05-10T12:29:59;16.00;99.90
37242;DHT22;23135;51.078;12.108;2023-05-10T12:32:45;15.90;99.90
37242;DHT22;23135;51.078;12.108;2023-05-10T12:35:11;15.80;99.90
37242;DHT22;23135;51.078;12.108;2023-05-10T12:37:36;15.80;99.90
37242;DHT22;23135;51.078;12.108;2023-05-10T12:40:06;15.70;99.90
37242;DHT22;23135;51.078;12.108;2023-05-10T12:42:33;15.60;99.90
37242;DHT22;23135;51.078;12.108;2023-05-10T12:44:59;15.60;99.90
37242;DHT22;23135;51.078;12.108;2023-05-10T12:47:24;15.50;99.90
37242;DHT22;23135;51.078;12.108;2023-05-10T12:49:50;15.40;99.90
37242;DHT22;23135;51.078;12.108;2023-05-10T12:52:16;15.10;99.90
37242;DHT22;23135;51.078;12.108;2023-05-10T12:54:42;14.80;99.90
37242;DHT22;23135;51.078;12.108;2023-05-10T12:57:07;14.50;99.90
37242;DHT22;23135;51.078;12.108;2023-05-10T12:59:33;14.30;99.90
37242;DHT22;23135;51.078;12.108;2023-05-10T13:01:58;14.10;99.90
37242;DHT22;23135;51.078;12.108;2023-05-10T13:04:24;14.00;99.90
37242;DHT22;23135;51.078;12.108;2023-05-10T13:06:49;14.00;99.90
37242;DHT22;23135;51.078;12.108;2023-05-10T13:09:15;14.00;99.90
37242;DHT22;23135;51.078;12.108;2023-05-10T13:11:41;14.00;99.90
37242;DHT22;23135;51.078;12.108;2023-05-10T13:14:06;14.10;99.90
37242;DHT22;23135;51.078;12.108;2023-05-10T13:16:32;14.00;99.90
37242;DHT22;23135;51.078;12.108;2023-05-10T13:18:58;14.10;99.90
37242;DHT22;23135;51.078;12.108;2023-05-10T13:21:23;14.00;99.90
37242;DHT22;23135;51.078;12.108;2023-05-10T13:23:50;14.00;99.90
37242;DHT22;23135;51.078;12.108;2023-05-10T13:26:16;14.00;99.90
37242;DHT22;23135;51.078;12.108;2023-05-10T13:28:41;14.10;99.90
37242;DHT22;23135;51.078;12.108;2023-05-10T13:31:07;14.10;99.90
37242;DHT22;23135;51.078;12.108;2023-05-10T13:33:33;14.20;99.90
37242;DHT22;23135;51.078;12.108;2023-05-10T13:35:58;14.20;99.90
37242;DHT22;23135;51.078;12.108;2023-05-10T13:38:24;14.30;99.90
37242;DHT22;23135;51.078;12.108;2023-05-10T13:40:49;14.30;99.90
37242;DHT22;23135;51.078;12.108;2023-05-10T13:43:18;14.30;99.90
37242;DHT22;23135;51.078;12.108;2023-05-10T13:45:43;14.30;99.90
37242;DHT22;23135;51.078;12.108;2023-05-10T13:48:09;14.30;99.90
37242;DHT22;23135;51.078;12.108;2023-05-10T13:50:35;14.40;99.90
37242;DHT22;23135;51.078;12.108;2023-05-10T13:53:00;14.40;99.90
37242;DHT22;23135;51.078;12.108;2023-05-10T13:55:26;14.50;99.90
37242;DHT22;23135;51.078;12.108;2023-05-10T13:57:51;14.50;99.90
37242;DHT22;23135;51.078;12.108;2023-05-10T14:00:17;14.60;99.90
37242;DHT22;23135;51.078;12.108;2023-05-10T14:02:43;14.50;99.90
37242;DHT22;23135;51.078;12.108;2023-05-10T14:05:08;14.60;99.90
37242;DHT22;23135;51.078;12.108;2023-05-10T14:07:34;14.60;99.90
37242;DHT22;23135;51.078;12.108;2023-05-10T14:10:00;14.60;99.90
37242;DHT22;23135;51.078;12.108;2023-05-10T14:12:25;14.60;99.90
37242;DHT22;23135;51.078;12.108;2023-05-10T14:14:51;14.60;99.90
37242;DHT22;23135;51.078;12.108;2023-05-10T14:17:17;14.60;99.90
37242;DHT22;23135;51.078;12.108;2023-05-10T14:19:43;14.60;99.90
37242;DHT22;23135;51.078;12.108;2023-05-10T14:22:09;14.60;99.90
37242;DHT22;23135;51.078;12.108;2023-05-10T14:24:34;14.70;99.90
37242;DHT22;23135;51.078;12.108;2023-05-10T14:27:00;14.70;99.90
37242;DHT22;23135;51.078;12.108;2023-05-10T14:29:26;14.70;99.90
37242;DHT22;23135;51.078;12.108;2023-05-10T14:31:51;14.70;99.90
37242;DHT22;23135;51.078;12.108;2023-05-10T14:34:17;14.60;99.90
37242;DHT22;23135;51.078;12.108;2023-05-10T14:36:42;14.50;99.90
37242;DHT22;23135;51.078;12.108;2023-05-10T14:39:08;14.50;99.90
37242;DHT22;23135;51.078;12.108;2023-05-10T14:41:35;14.50;99.90
37242;DHT22;23135;51.078;12.108;2023-05-10T14:44:01;14.60;99.90
37242;DHT22;23135;51.078;12.108;2023-05-10T14:46:28;14.50;99.90
37242;DHT22;23135;51.078;12.108;2023-05-10T14:48:55;14.50;99.90
37242;DHT22;23135;51.078;12.108;2023-05-10T14:51:20;14.50;99.90
37242;DHT22;23135;51.078;12.108;2023-05-10T14:53:48;14.50;99.90
37242;DHT22;23135;51.078;12.108;2023-05-10T14:56:14;14.50;99.90
37242;DHT22;23135;51.078;12.108;2023-05-10T14:58:40;14.50;99.90
37242;DHT22;23135;51.078;12.108;2023-05-10T15:01:05;14.50;99.90
37242;DHT22;23135;51.078;12.108;2023-05-10T15:03:31;14.50;99.90
37242;DHT22;23135;51.078;12.108;2023-05-10T15:05:56;14.50;99.90
37242;DHT22;23135;51.078;12.108;2023-05-10T15:08:23;14.40;99.90
37242;DHT22;23135;51.078;12.108;2023-05-10T15:10:52;14.40;99.90
37242;DHT22;23135;51.078;12.108;2023-05-10T15:13:17;14.40;99.90
37242;DHT22;23135;51.078;12.108;2023-05-10T15:15:43;14.40;99.90
37242;DHT22;23135;51.078;12.108;2023-05-10T15:18:09;14.50;99.90
37242;DHT22;23135;51.078;12.108;2023-05-10T15:20:35;14.50;99.90
37242;DHT22;23135;51.078;12.108;2023-05-10T15:23:00;14.50;99.90
37242;DHT22;23135;51.078;12.108;2023-05-10T15:25:26;14.50;99.90
37242;DHT22;23135;51.078;12.108;2023-05-10T15:27:53;14.60;99.90
37242;DHT22;23135;51.078;12.108;2023-05-10T15:30:18;14.50;99.90
37242;DHT22;23135;51.078;12.108;2023-05-10T15:32:44;14.50;99.90
37242;DHT22;23135;51.078;12.108;2023-05-10T15:35:10;14.50;99.90
37242;DHT22;23135;51.078;12.108;2023-05-10T15:37:36;14.50;99.90
37242;DHT22;23135;51.078;12.108;2023-05-10T15:40:02;14.40;99.90